Tuttle, Oklahoma
Current Conditions -  °F | °C
As of 6:15 AM on Friday 21 Nov 2014 (Local Time) from KRCE Reporting Station
NA  
Wind Chill: 46°   Ceiling: NA
Heat Index: 46°   Visibility: NA
Dew Point: 45°   Wind: 3mph
Humidity: 93%   Direction: 10°N
Pressure: 30.05"   Gusts: NA
Location:  35.29°N, 97.81°W
Report Text: KRCE 211215Z AUTO 01003KT 08/07 A3005 RMK AO2
Loading
Personal Weather Stations






























Interactive Weather Map New forecast layout! Learn more

10-Day Weather Forecast

Advertisements
Track Severe Weather on mobile